Time;durP1;ratioP1;P1;durP2;ratioP2;P2;SDS_P1;SDS_P2;PMS_P1;PMS_P2;Temp;Humidity;BMP_temperature;BMP_pressure;BME280_temperature;BME280_humidity;BME280_pressure;Samples;Min_cycle;Max_cycle;Signal;HPM_P1;HPM_P2
2022/12/25 00:00:28;;;;;;;2.40;2.20;;;10.50;99.90;;;;;;5010355;28;20220;-79
2022/12/25 00:02:54;;;;;;;4.17;2.27;;;10.90;99.90;;;;;;5010843;28;20342;-79
2022/12/25 00:05:19;;;;;;;4.37;2.77;;;10.50;99.90;;;;;;5011509;28;20184;-79
2022/12/25 00:07:45;;;;;;;3.30;2.27;;;10.50;99.90;;;;;;5011948;28;20186;-79
2022/12/25 00:10:10;;;;;;;4.83;2.53;;;10.70;99.90;;;;;;5011547;28;20196;-79
2022/12/25 00:12:36;;;;;;;3.13;2.67;;;10.60;99.90;;;;;;5012227;28;20208;-79
2022/12/25 00:15:02;;;;;;;3.40;2.57;;;10.60;99.90;;;;;;5012278;28;20513;-79
2022/12/25 00:17:28;;;;;;;2.95;2.75;;;10.50;99.90;;;;;;5009255;28;20939;-78
2022/12/25 00:19:53;;;;;;;3.37;2.17;;;10.40;99.90;;;;;;5001035;28;20203;-78
2022/12/25 00:22:19;;;;;;;5.33;2.30;;;10.50;99.90;;;;;;5011983;28;20205;-78
2022/12/25 00:24:46;;;;;;;2.70;2.50;;;11.00;99.90;;;;;;5009125;28;20220;-78
2022/12/25 00:27:12;;;;;;;2.88;2.60;;;10.60;99.90;;;;;;5012321;28;20187;-79
2022/12/25 00:29:37;;;;;;;3.00;2.70;;;10.60;99.90;;;;;;5011847;28;20188;-78
2022/12/25 00:32:03;;;;;;;2.60;1.70;;;10.40;99.90;;;;;;5010549;28;20210;-79
2022/12/25 00:34:29;;;;;;;4.10;2.50;;;11.00;99.90;;;;;;5004849;28;20185;-78
2022/12/25 00:36:54;;;;;;;2.60;2.40;;;10.60;99.90;;;;;;5011561;28;20942;-79
2022/12/25 00:39:20;;;;;;;2.20;2.00;;;10.60;99.90;;;;;;5010328;28;20195;-78
2022/12/25 00:44:30;;;;;;;2.83;2.53;;;10.70;99.90;;;;;;5013862;28;20186;-79
2022/12/25 00:46:55;;;;;;;3.23;2.30;;;11.10;99.90;;;;;;5012343;28;20179;-78
2022/12/25 00:49:22;;;;;;;3.90;2.70;;;10.40;99.90;;;;;;5006170;28;20256;-78
2022/12/25 00:51:49;;;;;;;2.63;2.42;;;10.80;99.90;;;;;;5011396;28;20200;-78
2022/12/25 00:54:15;;;;;;;3.83;2.50;;;10.60;99.90;;;;;;5002308;28;20188;-79
2022/12/25 00:56:40;;;;;;;5.33;2.77;;;10.40;99.90;;;;;;5010997;28;20251;-79
2022/12/25 00:59:06;;;;;;;3.30;3.00;;;11.00;99.90;;;;;;5011491;28;20310;-78
2022/12/25 01:01:32;;;;;;;6.83;3.33;;;10.90;99.90;;;;;;5010663;28;20204;-78
2022/12/25 01:03:57;;;;;;;4.03;2.67;;;10.90;99.90;;;;;;5011562;28;20234;-78
2022/12/25 01:06:23;;;;;;;3.07;2.40;;;10.70;99.90;;;;;;5011721;28;20184;-77
2022/12/25 01:11:33;;;;;;;3.75;2.60;;;10.60;99.90;;;;;;4999929;28;20627;-78
2022/12/25 01:13:58;;;;;;;4.30;3.10;;;10.50;99.90;;;;;;5006863;28;20180;-78
2022/12/25 01:16:24;;;;;;;5.63;2.90;;;10.10;99.90;;;;;;5010657;28;20197;-78
2022/12/25 01:18:50;;;;;;;3.20;2.90;;;10.60;99.90;;;;;;5015140;28;20664;-79
2022/12/25 01:21:18;;;;;;;3.70;3.20;;;11.20;99.90;;;;;;5011150;28;20212;-78
2022/12/25 01:23:44;;;;;;;8.02;2.90;;;10.80;99.90;;;;;;5008547;28;20196;-78
2022/12/25 01:26:11;;;;;;;4.57;3.40;;;11.10;99.90;;;;;;5010769;28;20253;-79
2022/12/25 01:28:38;;;;;;;3.38;3.00;;;11.10;99.90;;;;;;5010937;28;20667;-79
2022/12/25 01:31:07;;;;;;;3.20;2.53;;;10.90;99.90;;;;;;5017181;28;20216;-79
2022/12/25 01:33:32;;;;;;;4.07;2.97;;;10.80;99.90;;;;;;5005139;28;20197;-79
2022/12/25 01:35:58;;;;;;;2.60;2.40;;;11.00;99.90;;;;;;5010882;28;20908;-78
2022/12/25 01:38:23;;;;;;;3.90;3.23;;;11.00;99.90;;;;;;5007882;28;20225;-79
2022/12/25 01:40:49;;;;;;;3.10;2.80;;;10.80;99.90;;;;;;5009056;28;20215;-79
2022/12/25 01:43:30;;;;;;;3.50;2.80;;;11.40;99.90;;;;;;5010822;28;20219;-78
2022/12/25 01:45:56;;;;;;;4.22;3.42;;;11.20;99.90;;;;;;5010545;28;20177;-78
2022/12/25 01:48:40;;;;;;;4.20;3.00;;;11.00;99.90;;;;;;5009003;28;20179;-78
2022/12/25 01:51:29;;;;;;;3.53;3.10;;;10.60;99.90;;;;;;5006152;28;20282;-78
2022/12/25 01:53:58;;;;;;;2.95;2.60;;;10.50;99.90;;;;;;5004664;28;20263;-78
2022/12/25 01:56:26;;;;;;;5.90;3.03;;;10.40;99.90;;;;;;5008558;28;20192;-78
2022/12/25 01:58:53;;;;;;;3.58;2.67;;;10.70;99.90;;;;;;5009419;28;20183;-79
2022/12/25 02:01:18;;;;;;;3.83;3.22;;;10.90;99.90;;;;;;5010400;28;20220;-79
2022/12/25 02:03:44;;;;;;;2.83;2.37;;;10.60;99.90;;;;;;5004667;28;20246;-79
2022/12/25 02:06:10;;;;;;;3.93;2.60;;;10.90;99.90;;;;;;5010389;28;20262;-78
2022/12/25 02:08:35;;;;;;;3.00;2.80;;;10.80;99.90;;;;;;5013399;28;20217;-78
2022/12/25 02:11:01;;;;;;;3.50;2.97;;;11.10;99.90;;;;;;5008630;28;20215;-77
2022/12/25 02:13:26;;;;;;;4.93;3.93;;;11.20;99.90;;;;;;5009304;28;20816;-78
2022/12/25 02:16:19;;;;;;;4.20;3.40;;;11.10;99.90;;;;;;5008978;28;20192;-78
2022/12/25 02:18:51;;;;;;;6.72;3.00;;;10.90;99.90;;;;;;5002113;28;20189;-78
2022/12/25 02:21:22;;;;;;;4.63;3.00;;;10.80;99.90;;;;;;5010384;28;20221;-78
2022/12/25 02:24:32;;;;;;;3.20;2.90;;;10.90;99.90;;;;;;5008586;28;20660;-78
2022/12/25 02:27:22;;;;;;;3.25;2.85;;;11.00;99.90;;;;;;5005731;28;20196;-78
2022/12/25 02:30:07;;;;;;;4.15;3.35;;;11.00;99.90;;;;;;5011402;28;20532;-78
2022/12/25 02:32:38;;;;;;;3.38;3.08;;;10.90;99.90;;;;;;5008813;28;20234;-79
2022/12/25 02:35:14;;;;;;;4.20;3.08;;;10.80;99.90;;;;;;5014080;28;20332;-78
2022/12/25 02:37:56;;;;;;;2.90;2.70;;;11.00;99.90;;;;;;5013805;28;20699;-78
2022/12/25 02:40:34;;;;;;;4.75;2.88;;;11.20;99.90;;;;;;5001827;28;20791;-78
2022/12/25 03:08:26;;;;;;;3.30;3.00;;;11.00;99.90;;;;;;5001083;28;20269;-79
2022/12/25 03:13:51;;;;;;;3.58;3.28;;;10.60;99.90;;;;;;5013719;28;20191;-78
2022/12/25 03:26:53;;;;;;;5.28;3.70;;;10.90;99.90;;;;;;5005590;28;20198;-79
2022/12/25 03:27:17;;;;;;;3.58;3.28;;;10.70;99.90;;;;;;5012868;28;20576;-79
2022/12/25 03:32:43;;;;;;;3.30;3.00;;;10.20;99.90;;;;;;5008899;28;20245;-78
2022/12/25 03:35:44;;;;;;;3.40;3.13;;;10.60;99.90;;;;;;5011051;28;20185;-79
2022/12/25 04:37:33;;;;;;;4.38;3.97;;;10.20;99.90;;;;;;5011740;28;20214;-78
2022/12/25 04:39:59;;;;;;;6.17;3.33;;;10.20;99.90;;;;;;4999450;28;20681;-79
2022/12/25 04:42:24;;;;;;;4.27;3.87;;;10.50;99.90;;;;;;5012252;28;20205;-78
2022/12/25 04:44:50;;;;;;;4.60;4.13;;;10.40;99.90;;;;;;5011302;28;20178;-80
2022/12/25 04:47:15;;;;;;;4.30;3.90;;;10.30;99.90;;;;;;5010629;28;20173;-78
2022/12/25 04:49:41;;;;;;;4.07;3.73;;;10.70;99.90;;;;;;5009679;28;20187;-78
2022/12/25 04:52:07;;;;;;;4.10;3.67;;;10.20;99.90;;;;;;5011119;28;20202;-78
2022/12/25 04:54:32;;;;;;;4.50;4.10;;;10.60;99.90;;;;;;5002569;28;20201;-79
2022/12/25 04:56:58;;;;;;;4.20;3.80;;;10.20;99.90;;;;;;5011288;28;20242;-78
2022/12/25 04:59:23;;;;;;;4.77;4.20;;;10.70;99.90;;;;;;5010515;28;20192;-79
2022/12/25 05:01:49;;;;;;;4.07;3.77;;;10.20;99.90;;;;;;5009954;28;20230;-79
2022/12/25 05:04:14;;;;;;;4.07;3.77;;;10.70;99.90;;;;;;5008123;28;20667;-79
2022/12/25 05:06:40;;;;;;;4.87;4.20;;;10.60;99.90;;;;;;5011219;28;20184;-78
2022/12/25 05:09:05;;;;;;;4.63;4.23;;;10.60;99.90;;;;;;5005470;28;20724;-78
2022/12/25 05:11:31;;;;;;;4.40;3.97;;;10.70;99.90;;;;;;5009994;28;20323;-79
2022/12/25 05:13:56;;;;;;;4.47;4.07;;;10.30;99.90;;;;;;5011114;28;20211;-78
2022/12/25 05:16:22;;;;;;;5.27;4.43;;;10.20;99.90;;;;;;5011256;28;20176;-78
2022/12/25 05:18:51;;;;;;;5.17;4.67;;;10.30;99.90;;;;;;5007980;28;20208;-79
2022/12/25 05:21:17;;;;;;;5.47;4.63;;;10.70;99.90;;;;;;5010885;28;20244;-79
2022/12/25 05:23:47;;;;;;;5.82;5.22;;;10.40;99.90;;;;;;5009555;28;20580;-78
2022/12/25 05:26:14;;;;;;;6.88;5.28;;;10.30;99.90;;;;;;5009656;28;20717;-78
2022/12/25 05:28:39;;;;;;;5.70;5.10;;;10.30;99.90;;;;;;5024064;28;20191;-78
2022/12/25 05:31:05;;;;;;;5.37;4.87;;;10.70;99.90;;;;;;5010790;28;20215;-78
2022/12/25 05:33:31;;;;;;;5.50;5.03;;;10.20;99.90;;;;;;5003491;28;20191;-78
2022/12/25 05:35:57;;;;;;;5.90;5.07;;;10.40;99.90;;;;;;5011071;28;20184;-78
2022/12/25 05:38:22;;;;;;;5.80;5.20;;;10.50;99.90;;;;;;5008540;28;20439;-78
2022/12/25 05:40:50;;;;;;;6.50;5.23;;;10.30;99.90;;;;;;5001104;28;20210;-78
2022/12/25 05:43:18;;;;;;;5.95;5.35;;;10.50;99.90;;;;;;5010632;28;20176;-78
2022/12/25 05:45:43;;;;;;;6.00;5.40;;;10.40;99.90;;;;;;5014660;28;20279;-79
2022/12/25 05:48:09;;;;;;;5.87;5.37;;;10.80;99.90;;;;;;5007228;28;20728;-80
2022/12/25 05:50:36;;;;;;;6.23;5.20;;;10.80;99.90;;;;;;5017079;28;20192;-79
2022/12/25 05:53:04;;;;;;;5.53;4.85;;;10.20;99.90;;;;;;5010675;28;20215;-78
2022/12/25 05:55:33;;;;;;;7.10;6.43;;;10.80;99.90;;;;;;5002631;28;20240;-78
2022/12/25 05:57:58;;;;;;;5.90;5.32;;;10.70;99.90;;;;;;5022956;28;20748;-78
2022/12/25 06:00:24;;;;;;;6.60;6.00;;;10.70;99.90;;;;;;5020930;28;20294;-78
2022/12/25 06:02:49;;;;;;;7.10;5.60;;;10.30;99.90;;;;;;5017309;28;20220;-78
2022/12/25 06:05:15;;;;;;;6.20;5.63;;;10.30;99.90;;;;;;5014096;28;20662;-78
2022/12/25 06:07:40;;;;;;;5.90;5.40;;;10.20;99.90;;;;;;5015039;28;20189;-79
2022/12/25 06:10:06;;;;;;;6.30;5.60;;;10.50;99.90;;;;;;5010094;28;20612;-79
2022/12/25 06:12:32;;;;;;;5.95;5.45;;;10.30;99.90;;;;;;5014358;28;20669;-78
2022/12/25 06:14:57;;;;;;;6.40;5.80;;;10.10;99.90;;;;;;5014488;28;20183;-78
2022/12/25 06:17:25;;;;;;;6.53;5.97;;;10.20;99.90;;;;;;5009053;28;20250;-80
2022/12/25 06:19:52;;;;;;;5.70;5.20;;;10.60;99.90;;;;;;5014375;28;20180;-79
2022/12/25 06:22:18;;;;;;;5.80;5.20;;;10.20;99.90;;;;;;5012376;28;20710;-78
2022/12/25 06:24:43;;;;;;;5.30;4.80;;;10.20;99.90;;;;;;5013329;28;20195;-78
2022/12/25 06:27:09;;;;;;;5.37;4.73;;;10.30;99.90;;;;;;5013847;28;20282;-79
2022/12/25 06:29:34;;;;;;;5.97;4.77;;;11.10;99.90;;;;;;5004908;28;20671;-78
2022/12/25 06:32:00;;;;;;;6.03;5.13;;;10.70;99.90;;;;;;5011827;28;20591;-78
2022/12/25 06:34:26;;;;;;;7.77;5.10;;;10.10;99.90;;;;;;5014743;28;20667;-78
2022/12/25 06:36:52;;;;;;;4.97;4.47;;;10.40;99.90;;;;;;5014571;28;20190;-79
2022/12/25 06:39:17;;;;;;;5.10;4.40;;;10.80;99.90;;;;;;5005897;28;20199;-80
2022/12/25 06:41:43;;;;;;;4.80;4.40;;;10.80;99.90;;;;;;5014123;28;20213;-78
2022/12/25 06:44:08;;;;;;;4.80;4.27;;;10.50;99.90;;;;;;5015316;28;20184;-79
2022/12/25 06:46:34;;;;;;;4.13;3.77;;;10.40;99.90;;;;;;5013506;28;20569;-79
2022/12/25 06:49:00;;;;;;;4.47;4.07;;;9.90;99.90;;;;;;5005578;28;20177;-78
2022/12/25 06:51:28;;;;;;;5.10;3.90;;;10.50;99.90;;;;;;5013174;28;20264;-78
2022/12/25 06:53:54;;;;;;;4.53;3.97;;;10.60;99.90;;;;;;5008444;28;20422;-78
2022/12/25 06:56:22;;;;;;;4.30;3.80;;;10.60;99.90;;;;;;5011981;28;20211;-78
2022/12/25 06:58:51;;;;;;;3.88;3.55;;;10.50;99.90;;;;;;5014308;28;20191;-78
2022/12/25 07:01:33;;;;;;;4.30;3.53;;;10.20;99.90;;;;;;5009665;28;20212;-78
2022/12/25 07:04:35;;;;;;;7.03;4.15;;;10.60;99.90;;;;;;5007503;28;20238;-79
2022/12/25 07:07:01;;;;;;;3.83;3.53;;;10.30;99.90;;;;;;5013235;28;20175;-78
2022/12/25 07:09:27;;;;;;;4.65;3.50;;;10.80;99.90;;;;;;5008583;28;20246;-79
2022/12/25 07:11:53;;;;;;;4.27;3.87;;;10.60;99.90;;;;;;5013342;28;20212;-79
2022/12/25 07:14:21;;;;;;;4.03;3.63;;;10.40;99.90;;;;;;5012814;28;20184;-79
2022/12/25 07:16:47;;;;;;;3.63;3.28;;;10.30;99.90;;;;;;5008013;28;20533;-78
2022/12/25 07:19:13;;;;;;;2.80;2.60;;;10.10;99.90;;;;;;5000519;28;20267;-79
2022/12/25 07:21:39;;;;;;;3.23;2.93;;;10.30;99.90;;;;;;5011729;28;20227;-78
2022/12/25 07:24:04;;;;;;;3.50;3.20;;;10.80;99.90;;;;;;5010838;28;20745;-78
2022/12/25 07:26:30;;;;;;;3.60;3.30;;;10.40;99.90;;;;;;5012951;28;20171;-78
2022/12/25 07:28:56;;;;;;;3.00;2.80;;;10.70;99.90;;;;;;5012929;28;20441;-78
2022/12/25 07:31:21;;;;;;;4.37;3.97;;;10.40;99.90;;;;;;5013536;28;20291;-78
2022/12/25 07:33:47;;;;;;;3.63;3.30;;;10.40;99.90;;;;;;5001831;28;20274;-78
2022/12/25 07:36:13;;;;;;;3.70;3.40;;;10.30;99.90;;;;;;5012435;28;20330;-78
2022/12/25 07:38:41;;;;;;;4.40;3.63;;;10.60;99.90;;;;;;5008757;28;20197;-78
2022/12/25 07:41:08;;;;;;;3.67;3.38;;;10.70;99.90;;;;;;5005155;28;20211;-79
2022/12/25 07:43:33;;;;;;;4.13;3.55;;;10.70;99.90;;;;;;5013208;28;20184;-79
2022/12/25 07:45:59;;;;;;;5.30;3.07;;;10.80;99.90;;;;;;5012450;28;20650;-78
2022/12/25 07:48:28;;;;;;;3.27;3.07;;;10.60;99.90;;;;;;5010460;28;20189;-78
2022/12/25 07:50:58;;;;;;;2.95;2.75;;;10.60;99.90;;;;;;5005970;28;20519;-79
2022/12/25 07:53:25;;;;;;;3.28;2.97;;;10.90;99.90;;;;;;5010662;28;20184;-79
2022/12/25 07:56:03;;;;;;;3.67;3.38;;;10.90;99.90;;;;;;5006733;28;20211;-79
2022/12/25 07:58:29;;;;;;;3.35;3.08;;;11.00;99.90;;;;;;5012678;28;20189;-77
2022/12/25 08:01:04;;;;;;;2.80;2.60;;;10.80;99.90;;;;;;5010877;28;20221;-77
2022/12/25 08:03:31;;;;;;;3.22;3.03;;;10.70;99.90;;;;;;5003109;28;20219;-78
2022/12/25 08:06:05;;;;;;;4.32;3.60;;;10.70;99.90;;;;;;5012675;28;20281;-79
2022/12/25 08:08:31;;;;;;;5.30;3.20;;;10.80;99.90;;;;;;5007855;28;20679;-77
2022/12/25 08:10:57;;;;;;;3.38;3.15;;;10.80;99.90;;;;;;5009241;28;20192;-79
2022/12/25 08:13:22;;;;;;;3.47;3.10;;;10.80;99.90;;;;;;5010873;28;20286;-78
2022/12/25 08:15:48;;;;;;;4.70;4.27;;;10.70;99.90;;;;;;5024614;28;20501;-78
2022/12/25 08:18:13;;;;;;;3.60;3.30;;;10.80;99.90;;;;;;5011685;28;20236;-79
2022/12/25 08:20:39;;;;;;;3.87;3.23;;;10.80;99.90;;;;;;5011910;28;20309;-78
2022/12/25 08:23:05;;;;;;;2.70;2.50;;;11.10;99.90;;;;;;5012635;28;20704;-78
2022/12/25 08:25:31;;;;;;;3.70;3.40;;;11.10;99.90;;;;;;5009006;28;20174;-79
2022/12/25 08:28:00;;;;;;;3.70;3.40;;;10.70;99.90;;;;;;5010926;28;20432;-78
2022/12/25 08:30:25;;;;;;;3.65;3.45;;;10.90;99.90;;;;;;4999717;28;20287;-78
2022/12/25 08:32:51;;;;;;;3.87;3.57;;;10.50;99.90;;;;;;5010402;28;20291;-79
2022/12/25 08:35:16;;;;;;;5.47;3.97;;;10.80;99.90;;;;;;5011502;28;20212;-78
2022/12/25 08:37:42;;;;;;;4.10;3.67;;;11.00;99.90;;;;;;5010878;28;20688;-79
2022/12/25 08:40:09;;;;;;;3.80;3.07;;;11.20;99.90;;;;;;5020839;28;20275;-78
2022/12/25 08:42:34;;;;;;;5.53;4.10;;;11.30;99.90;;;;;;5012093;28;20197;-78
2022/12/25 08:45:00;;;;;;;3.53;3.23;;;11.20;99.90;;;;;;5011274;28;20265;-79
2022/12/25 08:47:25;;;;;;;2.80;2.60;;;11.20;99.90;;;;;;5007605;28;20195;-77
2022/12/25 08:49:50;;;;;;;3.93;3.17;;;11.00;99.90;;;;;;5009035;28;20275;-78
2022/12/25 08:52:16;;;;;;;4.10;3.70;;;10.80;99.90;;;;;;5011448;28;20653;-78
2022/12/25 08:54:41;;;;;;;4.00;3.53;;;11.30;99.90;;;;;;5007215;28;20196;-78
2022/12/25 08:57:07;;;;;;;3.13;2.90;;;11.40;99.90;;;;;;5012066;28;20199;-78
2022/12/25 08:59:32;;;;;;;4.03;3.70;;;11.10;99.90;;;;;;5010981;28;20216;-78
2022/12/25 09:01:58;;;;;;;3.70;3.40;;;11.00;99.90;;;;;;5009892;28;20614;-78
2022/12/25 09:04:24;;;;;;;3.57;2.77;;;11.20;99.90;;;;;;5008794;28;20819;-77
2022/12/25 09:06:49;;;;;;;3.97;3.57;;;11.20;99.90;;;;;;5011155;28;20726;-78
2022/12/25 09:09:15;;;;;;;3.13;2.80;;;10.70;99.90;;;;;;5005985;28;20188;-78
2022/12/25 09:11:41;;;;;;;3.83;3.47;;;11.20;99.90;;;;;;5011199;28;20469;-78
2022/12/25 09:14:08;;;;;;;3.97;3.43;;;11.10;99.90;;;;;;5011328;28;20547;-78
2022/12/25 09:16:34;;;;;;;3.75;3.10;;;10.80;99.90;;;;;;5009374;28;20851;-78
2022/12/25 09:18:59;;;;;;;3.40;3.00;;;11.00;99.90;;;;;;5007868;28;20193;-78
2022/12/25 09:21:25;;;;;;;3.53;3.23;;;11.20;99.90;;;;;;5010777;28;20712;-78
2022/12/25 09:23:51;;;;;;;3.63;3.33;;;10.90;99.90;;;;;;5008678;28;20193;-78
2022/12/25 09:26:17;;;;;;;3.47;3.17;;;10.90;99.90;;;;;;5010430;28;20777;-78
2022/12/25 09:28:43;;;;;;;3.65;3.35;;;11.40;99.90;;;;;;5010505;28;20506;-78
2022/12/25 09:31:09;;;;;;;4.03;3.70;;;11.70;99.90;;;;;;5011213;28;20705;-78
2022/12/25 09:33:34;;;;;;;3.40;3.10;;;12.70;99.90;;;;;;5007032;28;20491;-79
2022/12/25 09:36:03;;;;;;;3.50;3.17;;;13.00;99.90;;;;;;5010930;28;21046;-79
2022/12/25 09:38:29;;;;;;;3.10;2.90;;;13.00;99.90;;;;;;5007861;28;20195;-79
2022/12/25 09:41:13;;;;;;;3.25;3.00;;;12.90;99.90;;;;;;5001052;28;20210;-78
2022/12/25 09:43:49;;;;;;;3.53;3.30;;;13.30;99.90;;;;;;5023839;28;20549;-78
2022/12/25 09:46:18;;;;;;;4.10;3.72;;;13.10;99.90;;;;;;5010444;28;20254;-79
2022/12/25 09:49:14;;;;;;;4.00;3.50;;;12.50;99.90;;;;;;5009802;28;20605;-79
2022/12/25 09:51:43;;;;;;;4.82;4.22;;;12.30;99.90;;;;;;5001875;28;20218;-78
2022/12/25 09:54:22;;;;;;;4.25;3.60;;;12.60;99.90;;;;;;5002716;28;20172;-78
2022/12/25 09:56:48;;;;;;;4.47;3.83;;;12.50;99.90;;;;;;5002858;28;20193;-77
2022/12/25 09:59:23;;;;;;;4.47;4.17;;;12.40;99.90;;;;;;5010329;28;20194;-77
2022/12/25 10:02:31;;;;;;;4.70;4.30;;;12.40;99.90;;;;;;5009954;28;20210;-78
2022/12/25 10:05:59;;;;;;;4.00;3.25;;;13.00;99.90;;;;;;5012141;28;20183;-80
2022/12/25 10:09:06;;;;;;;3.40;3.20;;;14.20;99.90;;;;;;5006992;28;20651;-79
2022/12/25 10:12:26;;;;;;;4.72;4.20;;;14.90;99.90;;;;;;4991124;28;20703;-79
2022/12/25 10:15:16;;;;;;;3.63;3.33;;;15.30;99.90;;;;;;5014298;28;20231;-79
2022/12/25 10:18:33;;;;;;;4.25;3.70;;;14.70;99.90;;;;;;5011155;28;20175;-79
2022/12/25 10:21:02;;;;;;;3.60;3.30;;;15.60;99.90;;;;;;5000819;28;20245;-78
2022/12/25 10:23:34;;;;;;;4.35;3.70;;;16.60;99.90;;;;;;5007705;28;20183;-78
2022/12/25 10:26:01;;;;;;;3.80;3.50;;;16.60;99.90;;;;;;4997473;28;20186;-77
2022/12/25 10:28:58;;;;;;;3.80;3.50;;;17.60;99.90;;;;;;5008857;28;20193;-78
2022/12/25 10:31:27;;;;;;;4.30;3.90;;;18.30;99.90;;;;;;5009201;28;20219;-78
2022/12/25 10:33:53;;;;;;;4.25;3.85;;;17.70;99.20;;;;;;5004533;28;20187;-79
2022/12/25 10:36:22;;;;;;;3.83;3.53;;;18.30;99.90;;;;;;5002190;28;20660;-79
2022/12/25 10:38:48;;;;;;;4.80;3.67;;;18.20;98.90;;;;;;5005326;28;20215;-79
2022/12/25 10:41:46;;;;;;;6.40;3.67;;;17.90;98.70;;;;;;5003131;28;20218;-79
2022/12/25 10:44:20;;;;;;;4.10;3.42;;;17.80;99.20;;;;;;5009579;28;20233;-78
2022/12/25 10:46:50;;;;;;;3.50;3.20;;;16.80;99.90;;;;;;5007441;28;20644;-79
2022/12/25 10:49:18;;;;;;;3.63;3.33;;;17.60;99.90;;;;;;5009687;28;20198;-78
2022/12/25 10:51:44;;;;;;;4.57;4.18;;;17.20;99.90;;;;;;5013412;28;20285;-78
2022/12/25 10:54:36;;;;;;;3.83;3.53;;;18.10;99.90;;;;;;5005585;28;20267;-79
2022/12/25 10:57:14;;;;;;;3.22;2.95;;;18.40;99.10;;;;;;5016338;28;20659;-78
2022/12/25 10:59:48;;;;;;;2.90;2.03;;;18.60;99.20;;;;;;5015149;28;20799;-78
2022/12/25 11:02:25;;;;;;;1.88;1.77;;;17.40;99.20;;;;;;5005886;28;20214;-78
2022/12/25 11:04:57;;;;;;;2.08;1.98;;;17.00;99.90;;;;;;5000991;28;20585;-78
2022/12/25 11:07:25;;;;;;;3.40;2.95;;;16.80;99.90;;;;;;5012921;28;20178;-78
2022/12/25 11:10:00;;;;;;;2.40;2.20;;;16.60;99.90;;;;;;5007836;28;20179;-77
2022/12/25 11:12:36;;;;;;;2.47;2.28;;;16.40;99.90;;;;;;5013611;28;20588;-77
2022/12/25 11:15:06;;;;;;;2.72;2.15;;;16.30;99.90;;;;;;5016723;28;20179;-78
2022/12/25 11:17:31;;;;;;;2.40;2.20;;;16.10;99.90;;;;;;5011286;28;20194;-78
2022/12/25 11:20:00;;;;;;;2.67;2.30;;;15.90;99.90;;;;;;5011667;28;20186;-79
2022/12/25 11:22:27;;;;;;;2.35;2.25;;;15.50;99.90;;;;;;5015900;28;20232;-78
2022/12/25 11:24:53;;;;;;;3.13;2.80;;;16.10;99.90;;;;;;5016841;28;20629;-79
2022/12/25 11:27:24;;;;;;;3.05;2.60;;;15.60;99.90;;;;;;5013094;28;20266;-79
2022/12/25 11:29:54;;;;;;;3.75;2.10;;;15.80;99.90;;;;;;5013370;28;20182;-79
2022/12/25 11:32:23;;;;;;;2.72;2.53;;;15.20;99.90;;;;;;5012047;28;20211;-78
2022/12/25 11:34:49;;;;;;;4.07;3.40;;;15.40;99.90;;;;;;5023250;28;20238;-80
2022/12/25 11:37:51;;;;;;;4.65;3.95;;;15.20;99.90;;;;;;5011489;28;20202;-79
2022/12/25 11:40:25;;;;;;;2.85;2.40;;;15.70;99.90;;;;;;5010861;28;20206;-79
2022/12/25 11:43:06;;;;;;;5.80;3.97;;;15.80;99.90;;;;;;5013048;28;20209;-79
2022/12/25 11:45:46;;;;;;;2.47;2.20;;;15.50;99.90;;;;;;5003854;28;20214;-79
2022/12/25 11:48:32;;;;;;;3.95;3.38;;;15.90;99.90;;;;;;5011313;28;20187;-79
2022/12/25 11:51:01;;;;;;;2.20;2.00;;;16.00;99.90;;;;;;5012577;28;20193;-79
2022/12/25 11:53:36;;;;;;;4.10;3.70;;;16.10;99.90;;;;;;5011087;28;20952;-79
2022/12/25 11:56:10;;;;;;;3.53;2.85;;;16.50;99.90;;;;;;5006710;28;20274;-80
2022/12/25 11:58:43;;;;;;;2.50;2.10;;;16.70;99.90;;;;;;5012787;28;20186;-79
2022/12/25 12:01:42;;;;;;;2.10;2.00;;;17.40;99.90;;;;;;5012322;28;20723;-79
2022/12/25 12:04:22;;;;;;;2.50;2.30;;;17.40;99.90;;;;;;5002499;28;20187;-78
2022/12/25 12:07:03;;;;;;;2.45;2.25;;;17.50;99.90;;;;;;5012117;28;20417;-79
2022/12/25 12:09:36;;;;;;;2.30;1.95;;;17.80;99.90;;;;;;5007219;28;20186;-77
2022/12/25 12:12:55;;;;;;;2.55;2.13;;;18.30;99.90;;;;;;5012487;28;20229;-78
2022/12/25 12:15:41;;;;;;;3.08;2.13;;;18.10;99.90;;;;;;5009844;28;20217;-77
2022/12/25 12:18:24;;;;;;;7.20;3.78;;;18.00;99.90;;;;;;5008910;28;20202;-79
2022/12/25 12:21:22;;;;;;;2.63;2.13;;;17.50;99.90;;;;;;5013951;28;20206;-78
2022/12/25 12:23:50;;;;;;;2.90;2.40;;;18.00;99.90;;;;;;5013780;28;20602;-78
2022/12/25 12:26:21;;;;;;;2.75;2.20;;;17.80;99.90;;;;;;5017792;28;20187;-77
2022/12/25 12:28:48;;;;;;;2.50;1.80;;;18.20;99.90;;;;;;5014975;28;20721;-78
2022/12/25 12:31:14;;;;;;;2.13;1.90;;;17.30;99.90;;;;;;5011841;28;20242;-77
2022/12/25 12:33:56;;;;;;;6.22;5.70;;;17.30;99.90;;;;;;5010807;28;20198;-78
2022/12/25 12:36:25;;;;;;;2.10;1.90;;;18.20;99.90;;;;;;5011908;28;20183;-78
2022/12/25 12:38:52;;;;;;;4.82;1.98;;;18.00;99.90;;;;;;5010258;28;20179;-79
2022/12/25 12:41:17;;;;;;;1.92;1.83;;;17.00;99.90;;;;;;5011710;28;20207;-78
2022/12/25 12:43:47;;;;;;;2.33;2.03;;;17.60;99.90;;;;;;5011776;28;20201;-78
2022/12/25 12:46:18;;;;;;;2.20;1.67;;;17.40;99.90;;;;;;5010952;28;20178;-79
2022/12/25 12:48:46;;;;;;;2.10;2.00;;;17.50;99.90;;;;;;5006575;28;20187;-79
2022/12/25 12:51:26;;;;;;;2.83;2.63;;;17.10;99.90;;;;;;5011231;28;20275;-78
2022/12/25 12:54:03;;;;;;;5.30;4.72;;;17.10;99.90;;;;;;5010221;28;20738;-78
2022/12/25 12:56:29;;;;;;;4.22;3.80;;;17.50;99.90;;;;;;5011193;28;20179;-79
2022/12/25 12:58:54;;;;;;;6.10;3.33;;;17.00;99.90;;;;;;5011640;28;20179;-79
2022/12/25 13:01:26;;;;;;;5.60;3.30;;;16.80;99.90;;;;;;5024030;28;20226;-79
2022/12/25 13:03:51;;;;;;;3.80;3.47;;;17.20;99.90;;;;;;5006299;28;20187;-77
2022/12/25 13:06:30;;;;;;;2.13;1.93;;;16.80;99.90;;;;;;5010876;28;20190;-78
2022/12/25 13:09:04;;;;;;;2.83;2.25;;;16.80;99.90;;;;;;5006371;28;20262;-78
2022/12/25 13:11:41;;;;;;;2.47;2.28;;;16.70;99.90;;;;;;5011766;28;20194;-78
2022/12/25 13:14:14;;;;;;;2.38;2.05;;;16.20;99.90;;;;;;5010433;28;20245;-80
2022/12/25 13:16:43;;;;;;;2.80;1.90;;;16.80;99.90;;;;;;5010901;28;20183;-79
2022/12/25 13:19:17;;;;;;;2.15;1.95;;;16.30;99.90;;;;;;5007973;28;20270;-78
2022/12/25 13:21:57;;;;;;;2.20;2.00;;;16.70;99.90;;;;;;5011014;28;20275;-80
2022/12/25 13:24:27;;;;;;;1.90;1.60;;;16.60;99.90;;;;;;4998805;28;20206;-78
2022/12/25 13:26:53;;;;;;;3.13;2.72;;;16.40;99.90;;;;;;5009497;28;20195;-78
2022/12/25 13:29:27;;;;;;;3.70;2.95;;;16.50;99.90;;;;;;5011517;28;20194;-79
2022/12/25 13:31:53;;;;;;;4.15;3.13;;;16.60;99.90;;;;;;5010255;28;20683;-78
2022/12/25 13:34:35;;;;;;;1.80;1.70;;;16.20;99.90;;;;;;5008075;28;20260;-79
2022/12/25 13:37:16;;;;;;;2.30;2.05;;;16.30;99.90;;;;;;5010845;28;20249;-78
2022/12/25 13:39:52;;;;;;;2.47;1.73;;;16.60;99.90;;;;;;5005234;28;20186;-79
2022/12/25 13:42:23;;;;;;;1.90;1.80;;;16.10;99.90;;;;;;5010487;28;20225;-79
2022/12/25 13:44:56;;;;;;;2.10;1.90;;;16.00;99.90;;;;;;5003684;28;20559;-79
2022/12/25 13:47:21;;;;;;;2.38;1.95;;;16.30;99.90;;;;;;5010285;28;20183;-79
2022/12/25 13:49:48;;;;;;;1.50;1.40;;;16.40;99.90;;;;;;5011302;28;20248;-79
2022/12/25 13:52:19;;;;;;;1.63;1.50;;;16.30;99.90;;;;;;5008785;28;20264;-79
2022/12/25 13:54:56;;;;;;;1.98;1.77;;;16.60;99.90;;;;;;5003565;28;20199;-78
2022/12/25 13:57:26;;;;;;;2.50;2.10;;;16.70;99.90;;;;;;5010100;28;20191;-79
2022/12/25 13:59:52;;;;;;;5.35;4.85;;;16.70;99.90;;;;;;5010808;28;20209;-79
2022/12/25 14:02:22;;;;;;;1.90;1.70;;;16.20;99.90;;;;;;5010520;28;20246;-79
2022/12/25 14:04:47;;;;;;;2.10;1.90;;;16.30;99.90;;;;;;5010419;28;20218;-79
2022/12/25 14:07:18;;;;;;;3.30;2.43;;;17.30;99.90;;;;;;5010196;28;20210;-79
2022/12/25 14:09:44;;;;;;;2.47;2.25;;;15.90;99.90;;;;;;5010699;28;20182;-78
2022/12/25 14:12:09;;;;;;;5.00;2.77;;;16.10;99.90;;;;;;5008389;28;20268;-78
2022/12/25 14:14:36;;;;;;;2.63;2.33;;;15.80;99.90;;;;;;5010338;28;20523;-79
2022/12/25 14:17:01;;;;;;;2.30;2.10;;;15.90;99.90;;;;;;5010119;28;20541;-78
2022/12/25 14:19:32;;;;;;;2.53;2.30;;;15.80;99.90;;;;;;5008612;28;20202;-78
2022/12/25 14:22:20;;;;;;;2.10;1.95;;;15.70;99.90;;;;;;5010153;28;20222;-78
2022/12/25 14:24:46;;;;;;;3.70;2.85;;;15.50;99.90;;;;;;5008948;28;20200;-78
2022/12/25 14:27:29;;;;;;;2.10;1.90;;;15.10;99.90;;;;;;5014055;28;20647;-78
2022/12/25 14:29:58;;;;;;;3.00;2.53;;;15.70;99.90;;;;;;5014051;28;20190;-78
2022/12/25 14:32:27;;;;;;;2.90;2.35;;;15.00;99.90;;;;;;5011238;28;20256;-79
2022/12/25 14:34:58;;;;;;;3.47;2.90;;;14.80;99.90;;;;;;5012843;28;20640;-79
2022/12/25 14:37:29;;;;;;;6.70;3.83;;;15.20;99.90;;;;;;5013636;28;20187;-78
2022/12/25 14:40:05;;;;;;;5.05;3.90;;;15.00;99.90;;;;;;5011092;28;20725;-79
2022/12/25 14:42:33;;;;;;;3.10;2.80;;;14.90;99.90;;;;;;5012387;28;20218;-80
2022/12/25 14:45:27;;;;;;;3.33;2.88;;;15.30;99.90;;;;;;5013448;28;20171;-79
2022/12/25 14:47:55;;;;;;;3.47;3.17;;;14.70;99.90;;;;;;5028534;28;20179;-79
2022/12/25 14:50:36;;;;;;;3.58;2.75;;;14.90;99.90;;;;;;5006625;28;20179;-79